sensor_id;sensor_type;location;lat;lon;timestamp;P1;durP1;ratioP1;P2;durP2;ratioP2
8171;SDS011;4127;47.908;10.850;2022-12-18T04:24:15;29.60;;;15.93;;
8171;SDS011;4127;47.908;10.850;2022-12-18T04:27:13;36.10;;;17.53;;
8171;SDS011;4127;47.908;10.850;2022-12-18T04:30:00;27.57;;;14.57;;
8171;SDS011;4127;47.908;10.850;2022-12-18T04:32:54;26.10;;;14.27;;
8171;SDS011;4127;47.908;10.850;2022-12-18T04:35:29;22.83;;;14.80;;
8171;SDS011;4127;47.908;10.850;2022-12-18T04:38:35;24.77;;;14.07;;
8171;SDS011;4127;47.908;10.850;2022-12-18T04:41:44;25.17;;;14.90;;
8171;SDS011;4127;47.908;10.850;2022-12-18T04:44:12;25.23;;;15.37;;
8171;SDS011;4127;47.908;10.850;2022-12-18T04:47:08;22.17;;;13.13;;
8171;SDS011;4127;47.908;10.850;2022-12-18T04:56:27;25.97;;;15.43;;
8171;SDS011;4127;47.908;10.850;2022-12-18T04:58:54;22.60;;;14.07;;
8171;SDS011;4127;47.908;10.850;2022-12-18T05:01:24;25.00;;;15.00;;
8171;SDS011;4127;47.908;10.850;2022-12-18T05:04:04;39.43;;;16.30;;
8171;SDS011;4127;47.908;10.850;2022-12-18T05:06:52;42.57;;;17.70;;
8171;SDS011;4127;47.908;10.850;2022-12-18T05:09:23;22.17;;;14.13;;
8171;SDS011;4127;47.908;10.850;2022-12-18T05:12:10;24.17;;;13.43;;
8171;SDS011;4127;47.908;10.850;2022-12-18T05:14:40;25.90;;;14.43;;
8171;SDS011;4127;47.908;10.850;2022-12-18T05:17:13;23.73;;;14.13;;
8171;SDS011;4127;47.908;10.850;2022-12-18T05:19:42;22.07;;;13.37;;
8171;SDS011;4127;47.908;10.850;2022-12-18T05:22:12;22.73;;;14.23;;
8171;SDS011;4127;47.908;10.850;2022-12-18T05:24:39;23.00;;;14.53;;
8171;SDS011;4127;47.908;10.850;2022-12-18T05:27:05;25.20;;;15.97;;
8171;SDS011;4127;47.908;10.850;2022-12-18T05:29:32;20.63;;;14.23;;
8171;SDS011;4127;47.908;10.850;2022-12-18T05:31:59;27.90;;;14.53;;
8171;SDS011;4127;47.908;10.850;2022-12-18T05:34:32;24.10;;;14.33;;
8171;SDS011;4127;47.908;10.850;2022-12-18T05:37:01;23.50;;;14.80;;
8171;SDS011;4127;47.908;10.850;2022-12-18T05:39:29;22.50;;;14.43;;
8171;SDS011;4127;47.908;10.850;2022-12-18T05:41:56;24.07;;;14.93;;
8171;SDS011;4127;47.908;10.850;2022-12-18T05:44:22;25.33;;;14.93;;
8171;SDS011;4127;47.908;10.850;2022-12-18T05:46:53;25.53;;;15.77;;
8171;SDS011;4127;47.908;10.850;2022-12-18T05:49:23;24.97;;;15.43;;
8171;SDS011;4127;47.908;10.850;2022-12-18T05:51:53;24.03;;;15.00;;
8171;SDS011;4127;47.908;10.850;2022-12-18T05:54:20;23.17;;;14.33;;
8171;SDS011;4127;47.908;10.850;2022-12-18T05:56:48;21.87;;;13.83;;
8171;SDS011;4127;47.908;10.850;2022-12-18T05:59:14;21.67;;;14.07;;
8171;SDS011;4127;47.908;10.850;2022-12-18T06:01:41;20.17;;;13.07;;
8171;SDS011;4127;47.908;10.850;2022-12-18T06:04:11;19.20;;;12.90;;
8171;SDS011;4127;47.908;10.850;2022-12-18T06:06:39;18.83;;;12.30;;
8171;SDS011;4127;47.908;10.850;2022-12-18T06:09:07;19.80;;;13.30;;
8171;SDS011;4127;47.908;10.850;2022-12-18T06:11:36;20.37;;;12.43;;
8171;SDS011;4127;47.908;10.850;2022-12-18T06:14:04;22.70;;;13.50;;
8171;SDS011;4127;47.908;10.850;2022-12-18T06:16:34;22.30;;;13.53;;
8171;SDS011;4127;47.908;10.850;2022-12-18T06:19:02;28.83;;;15.60;;
8171;SDS011;4127;47.908;10.850;2022-12-18T06:21:31;20.60;;;13.17;;
8171;SDS011;4127;47.908;10.850;2022-12-18T06:23:59;22.17;;;12.47;;
8171;SDS011;4127;47.908;10.850;2022-12-18T06:26:26;20.30;;;13.17;;
8171;SDS011;4127;47.908;10.850;2022-12-18T06:28:54;21.80;;;13.40;;
8171;SDS011;4127;47.908;10.850;2022-12-18T06:31:21;20.80;;;12.60;;
8171;SDS011;4127;47.908;10.850;2022-12-18T06:33:55;20.37;;;12.80;;
8171;SDS011;4127;47.908;10.850;2022-12-18T06:36:29;21.80;;;13.23;;
8171;SDS011;4127;47.908;10.850;2022-12-18T06:38:58;21.73;;;13.10;;
8171;SDS011;4127;47.908;10.850;2022-12-18T06:41:27;25.13;;;14.50;;
8171;SDS011;4127;47.908;10.850;2022-12-18T06:44:00;23.73;;;15.10;;
8171;SDS011;4127;47.908;10.850;2022-12-18T06:46:33;21.23;;;12.57;;
8171;SDS011;4127;47.908;10.850;2022-12-18T06:49:17;22.43;;;13.23;;
8171;SDS011;4127;47.908;10.850;2022-12-18T06:51:46;19.37;;;12.37;;
8171;SDS011;4127;47.908;10.850;2022-12-18T06:54:26;20.20;;;12.80;;
8171;SDS011;4127;47.908;10.850;2022-12-18T06:57:10;21.13;;;13.77;;
8171;SDS011;4127;47.908;10.850;2022-12-18T07:00:03;24.40;;;14.90;;
8171;SDS011;4127;47.908;10.850;2022-12-18T07:02:47;24.07;;;14.37;;
8171;SDS011;4127;47.908;10.850;2022-12-18T07:05:24;21.10;;;13.00;;
8171;SDS011;4127;47.908;10.850;2022-12-18T07:08:28;21.07;;;12.13;;
8171;SDS011;4127;47.908;10.850;2022-12-18T07:11:02;18.30;;;12.03;;
8171;SDS011;4127;47.908;10.850;2022-12-18T07:13:29;22.07;;;12.80;;
8171;SDS011;4127;47.908;10.850;2022-12-18T07:16:07;22.60;;;13.10;;
8171;SDS011;4127;47.908;10.850;2022-12-18T07:18:47;19.40;;;12.37;;
8171;SDS011;4127;47.908;10.850;2022-12-18T07:21:20;19.87;;;12.50;;
8171;SDS011;4127;47.908;10.850;2022-12-18T07:23:47;22.27;;;13.10;;
8171;SDS011;4127;47.908;10.850;2022-12-18T07:26:18;22.73;;;11.90;;
8171;SDS011;4127;47.908;10.850;2022-12-18T07:28:46;20.53;;;12.83;;
8171;SDS011;4127;47.908;10.850;2022-12-18T07:33:59;21.97;;;14.13;;
8171;SDS011;4127;47.908;10.850;2022-12-18T07:36:29;23.60;;;13.70;;
8171;SDS011;4127;47.908;10.850;2022-12-18T07:38:56;20.83;;;12.73;;
8171;SDS011;4127;47.908;10.850;2022-12-18T07:41:26;21.67;;;13.30;;
8171;SDS011;4127;47.908;10.850;2022-12-18T07:43:53;18.83;;;11.43;;
8171;SDS011;4127;47.908;10.850;2022-12-18T07:46:32;18.67;;;11.93;;
8171;SDS011;4127;47.908;10.850;2022-12-18T07:49:21;18.80;;;11.77;;
8171;SDS011;4127;47.908;10.850;2022-12-18T07:51:56;19.73;;;11.87;;
8171;SDS011;4127;47.908;10.850;2022-12-18T07:54:29;18.93;;;11.90;;
8171;SDS011;4127;47.908;10.850;2022-12-18T07:56:56;22.53;;;13.07;;
8171;SDS011;4127;47.908;10.850;2022-12-18T07:59:23;19.53;;;11.37;;
8171;SDS011;4127;47.908;10.850;2022-12-18T08:01:52;21.10;;;13.10;;
8171;SDS011;4127;47.908;10.850;2022-12-18T08:04:20;22.13;;;13.53;;
8171;SDS011;4127;47.908;10.850;2022-12-18T08:06:46;21.67;;;13.33;;
8171;SDS011;4127;47.908;10.850;2022-12-18T08:09:14;19.20;;;13.27;;
8171;SDS011;4127;47.908;10.850;2022-12-18T08:11:41;19.73;;;11.83;;
8171;SDS011;4127;47.908;10.850;2022-12-18T08:14:10;24.97;;;13.87;;
8171;SDS011;4127;47.908;10.850;2022-12-18T08:16:59;26.13;;;14.43;;
8171;SDS011;4127;47.908;10.850;2022-12-18T08:19:42;22.10;;;13.13;;
8171;SDS011;4127;47.908;10.850;2022-12-18T08:22:10;24.60;;;13.90;;
8171;SDS011;4127;47.908;10.850;2022-12-18T08:24:38;19.70;;;12.13;;
8171;SDS011;4127;47.908;10.850;2022-12-18T08:27:10;19.67;;;12.43;;
8171;SDS011;4127;47.908;10.850;2022-12-18T08:29:56;21.43;;;12.47;;
8171;SDS011;4127;47.908;10.850;2022-12-18T08:32:38;18.07;;;12.27;;
8171;SDS011;4127;47.908;10.850;2022-12-18T08:35:06;21.50;;;12.63;;
8171;SDS011;4127;47.908;10.850;2022-12-18T08:37:35;24.33;;;12.97;;
8171;SDS011;4127;47.908;10.850;2022-12-18T08:40:09;18.70;;;12.43;;
8171;SDS011;4127;47.908;10.850;2022-12-18T08:42:43;22.13;;;13.10;;
8171;SDS011;4127;47.908;10.850;2022-12-18T08:45:33;30.30;;;14.50;;
8171;SDS011;4127;47.908;10.850;2022-12-18T08:48:15;21.23;;;12.57;;
8171;SDS011;4127;47.908;10.850;2022-12-18T08:53:48;17.83;;;10.80;;
8171;SDS011;4127;47.908;10.850;2022-12-18T08:56:18;19.53;;;12.33;;
8171;SDS011;4127;47.908;10.850;2022-12-18T08:59:08;18.40;;;11.30;;
8171;SDS011;4127;47.908;10.850;2022-12-18T09:01:44;25.83;;;12.30;;
8171;SDS011;4127;47.908;10.850;2022-12-18T09:04:25;20.97;;;12.37;;
8171;SDS011;4127;47.908;10.850;2022-12-18T09:07:01;19.83;;;12.13;;
8171;SDS011;4127;47.908;10.850;2022-12-18T09:09:50;23.00;;;11.03;;
8171;SDS011;4127;47.908;10.850;2022-12-18T09:12:25;20.60;;;11.87;;
8171;SDS011;4127;47.908;10.850;2022-12-18T09:15:19;19.27;;;12.30;;
8171;SDS011;4127;47.908;10.850;2022-12-18T09:17:56;19.37;;;11.97;;
8171;SDS011;4127;47.908;10.850;2022-12-18T09:20:23;19.63;;;11.80;;
8171;SDS011;4127;47.908;10.850;2022-12-18T09:22:50;16.73;;;10.57;;
8171;SDS011;4127;47.908;10.850;2022-12-18T09:25:20;16.97;;;10.63;;
8171;SDS011;4127;47.908;10.850;2022-12-18T09:28:17;18.83;;;11.77;;
8171;SDS011;4127;47.908;10.850;2022-12-18T09:31:48;17.60;;;10.20;;
8171;SDS011;4127;47.908;10.850;2022-12-18T09:33:59;17.70;;;11.13;;
8171;SDS011;4127;47.908;10.850;2022-12-18T09:37:25;20.03;;;10.70;;
8171;SDS011;4127;47.908;10.850;2022-12-18T09:46:11;15.90;;;9.83;;
8171;SDS011;4127;47.908;10.850;2022-12-18T09:48:58;17.13;;;10.90;;
8171;SDS011;4127;47.908;10.850;2022-12-18T09:51:46;16.30;;;10.93;;
8171;SDS011;4127;47.908;10.850;2022-12-18T09:54:37;16.53;;;10.50;;
8171;SDS011;4127;47.908;10.850;2022-12-18T10:20:54;17.30;;;10.67;;
8171;SDS011;4127;47.908;10.850;2022-12-18T10:28:15;16.53;;;11.00;;
8171;SDS011;4127;47.908;10.850;2022-12-18T10:34:55;16.30;;;10.53;;
8171;SDS011;4127;47.908;10.850;2022-12-18T10:37:29;16.70;;;11.23;;
8171;SDS011;4127;47.908;10.850;2022-12-18T10:47:21;16.57;;;10.90;;
8171;SDS011;4127;47.908;10.850;2022-12-18T10:50:52;17.97;;;11.50;;
8171;SDS011;4127;47.908;10.850;2022-12-18T10:54:22;18.07;;;11.70;;
8171;SDS011;4127;47.908;10.850;2022-12-18T11:01:55;16.47;;;10.27;;
8171;SDS011;4127;47.908;10.850;2022-12-18T11:04:30;13.60;;;9.63;;
8171;SDS011;4127;47.908;10.850;2022-12-18T11:07:04;18.60;;;11.17;;
8171;SDS011;4127;47.908;10.850;2022-12-18T11:16:59;15.53;;;10.40;;
8171;SDS011;4127;47.908;10.850;2022-12-18T11:19:59;18.07;;;10.60;;
8171;SDS011;4127;47.908;10.850;2022-12-18T11:29:35;14.67;;;10.53;;
8171;SDS011;4127;47.908;10.850;2022-12-18T11:45:00;16.33;;;11.53;;
8171;SDS011;4127;47.908;10.850;2022-12-18T11:47:38;16.37;;;11.00;;
8171;SDS011;4127;47.908;10.850;2022-12-18T11:57:07;20.73;;;12.07;;
8171;SDS011;4127;47.908;10.850;2022-12-18T12:10:02;18.90;;;11.87;;
8171;SDS011;4127;47.908;10.850;2022-12-18T12:16:21;19.93;;;12.23;;
8171;SDS011;4127;47.908;10.850;2022-12-18T12:37:03;18.67;;;11.83;;
8171;SDS011;4127;47.908;10.850;2022-12-18T12:39:36;20.80;;;12.93;;
8171;SDS011;4127;47.908;10.850;2022-12-18T12:45:45;20.13;;;11.77;;
8171;SDS011;4127;47.908;10.850;2022-12-18T12:49:52;20.00;;;12.03;;
8171;SDS011;4127;47.908;10.850;2022-12-18T12:52:37;20.67;;;12.63;;
8171;SDS011;4127;47.908;10.850;2022-12-18T12:55:26;23.87;;;13.40;;
8171;SDS011;4127;47.908;10.850;2022-12-18T13:09:10;22.23;;;12.10;;
8171;SDS011;4127;47.908;10.850;2022-12-18T13:11:44;31.17;;;14.63;;
8171;SDS011;4127;47.908;10.850;2022-12-18T13:18:40;19.90;;;11.60;;
8171;SDS011;4127;47.908;10.850;2022-12-18T13:21:27;22.37;;;13.17;;
8171;SDS011;4127;47.908;10.850;2022-12-18T13:34:43;23.60;;;14.33;;
8171;SDS011;4127;47.908;10.850;2022-12-18T13:44:28;19.13;;;12.57;;
8171;SDS011;4127;47.908;10.850;2022-12-18T13:49:57;20.87;;;12.40;;
8171;SDS011;4127;47.908;10.850;2022-12-18T13:52:25;17.80;;;11.40;;
8171;SDS011;4127;47.908;10.850;2022-12-18T13:58:44;20.43;;;12.37;;
8171;SDS011;4127;47.908;10.850;2022-12-18T14:02:00;25.03;;;14.00;;
8171;SDS011;4127;47.908;10.850;2022-12-18T14:04:37;21.43;;;12.97;;
8171;SDS011;4127;47.908;10.850;2022-12-18T14:13:56;21.63;;;13.87;;
8171;SDS011;4127;47.908;10.850;2022-12-18T14:16:26;24.53;;;14.17;;
8171;SDS011;4127;47.908;10.850;2022-12-18T14:19:14;24.97;;;14.37;;
8171;SDS011;4127;47.908;10.850;2022-12-18T14:25:39;30.00;;;15.90;;
8171;SDS011;4127;47.908;10.850;2022-12-18T14:28:14;23.90;;;13.27;;
8171;SDS011;4127;47.908;10.850;2022-12-18T14:31:20;23.87;;;13.70;;
8171;SDS011;4127;47.908;10.850;2022-12-18T14:40:54;18.57;;;12.07;;
8171;SDS011;4127;47.908;10.850;2022-12-18T14:43:25;18.17;;;11.90;;
8171;SDS011;4127;47.908;10.850;2022-12-18T14:45:54;19.40;;;11.97;;
8171;SDS011;4127;47.908;10.850;2022-12-18T14:55:01;18.10;;;12.13;;
8171;SDS011;4127;47.908;10.850;2022-12-18T14:57:30;19.93;;;12.40;;
8171;SDS011;4127;47.908;10.850;2022-12-18T15:00:15;22.63;;;13.80;;
8171;SDS011;4127;47.908;10.850;2022-12-18T15:06:44;20.33;;;13.13;;
8171;SDS011;4127;47.908;10.850;2022-12-18T15:09:41;23.33;;;13.37;;
8171;SDS011;4127;47.908;10.850;2022-12-18T15:12:34;20.70;;;13.63;;
8171;SDS011;4127;47.908;10.850;2022-12-18T15:22:22;20.30;;;12.23;;
8171;SDS011;4127;47.908;10.850;2022-12-18T15:25:20;20.03;;;11.90;;
8171;SDS011;4127;47.908;10.850;2022-12-18T15:28:12;22.10;;;12.43;;
8171;SDS011;4127;47.908;10.850;2022-12-18T15:32:19;17.70;;;11.70;;
8171;SDS011;4127;47.908;10.850;2022-12-18T15:37:42;18.77;;;11.63;;
8171;SDS011;4127;47.908;10.850;2022-12-18T15:40:14;20.17;;;12.33;;
8171;SDS011;4127;47.908;10.850;2022-12-18T15:42:51;21.83;;;13.63;;
8171;SDS011;4127;47.908;10.850;2022-12-18T15:46:58;21.23;;;12.87;;
8171;SDS011;4127;47.908;10.850;2022-12-18T15:49:28;21.37;;;13.43;;
8171;SDS011;4127;47.908;10.850;2022-12-18T15:52:18;19.83;;;12.17;;
8171;SDS011;4127;47.908;10.850;2022-12-18T15:54:52;20.20;;;12.40;;
8171;SDS011;4127;47.908;10.850;2022-12-18T15:57:46;20.97;;;12.97;;
8171;SDS011;4127;47.908;10.850;2022-12-18T16:01:23;18.87;;;11.90;;
8171;SDS011;4127;47.908;10.850;2022-12-18T16:03:58;21.37;;;13.20;;
8171;SDS011;4127;47.908;10.850;2022-12-18T16:06:34;26.10;;;17.73;;
8171;SDS011;4127;47.908;10.850;2022-12-18T16:13:32;24.37;;;15.37;;
8171;SDS011;4127;47.908;10.850;2022-12-18T16:16:22;21.20;;;14.23;;
8171;SDS011;4127;47.908;10.850;2022-12-18T16:19:15;20.43;;;13.00;;
8171;SDS011;4127;47.908;10.850;2022-12-18T16:21:45;22.60;;;15.30;;
8171;SDS011;4127;47.908;10.850;2022-12-18T16:24:37;41.40;;;25.27;;
8171;SDS011;4127;47.908;10.850;2022-12-18T16:27:32;28.70;;;19.77;;
8171;SDS011;4127;47.908;10.850;2022-12-18T16:30:22;23.23;;;15.97;;
8171;SDS011;4127;47.908;10.850;2022-12-18T16:33:05;21.93;;;15.20;;
8171;SDS011;4127;47.908;10.850;2022-12-18T16:35:52;22.27;;;15.23;;
8171;SDS011;4127;47.908;10.850;2022-12-18T16:38:19;22.17;;;16.90;;
8171;SDS011;4127;47.908;10.850;2022-12-18T16:40:46;22.67;;;15.67;;
8171;SDS011;4127;47.908;10.850;2022-12-18T16:43:33;21.83;;;15.37;;
8171;SDS011;4127;47.908;10.850;2022-12-18T16:49:28;17.83;;;14.00;;
8171;SDS011;4127;47.908;10.850;2022-12-18T16:51:55;19.27;;;12.93;;
8171;SDS011;4127;47.908;10.850;2022-12-18T16:54:22;18.37;;;12.87;;
8171;SDS011;4127;47.908;10.850;2022-12-18T16:57:02;19.27;;;13.57;;
8171;SDS011;4127;47.908;10.850;2022-12-18T17:00:29;21.53;;;13.43;;
8171;SDS011;4127;47.908;10.850;2022-12-18T17:03:06;20.13;;;14.43;;
8171;SDS011;4127;47.908;10.850;2022-12-18T17:05:33;22.37;;;16.20;;
8171;SDS011;4127;47.908;10.850;2022-12-18T17:08:00;20.53;;;14.73;;
8171;SDS011;4127;47.908;10.850;2022-12-18T17:11:02;20.17;;;14.53;;
8171;SDS011;4127;47.908;10.850;2022-12-18T17:17:05;18.93;;;12.33;;
8171;SDS011;4127;47.908;10.850;2022-12-18T17:19:47;16.87;;;11.53;;
8171;SDS011;4127;47.908;10.850;2022-12-18T17:22:21;20.80;;;14.63;;
8171;SDS011;4127;47.908;10.850;2022-12-18T17:25:07;20.73;;;15.00;;
8171;SDS011;4127;47.908;10.850;2022-12-18T17:28:59;19.60;;;14.27;;
8171;SDS011;4127;47.908;10.850;2022-12-18T17:31:26;24.50;;;16.63;;
8171;SDS011;4127;47.908;10.850;2022-12-18T17:33:55;29.17;;;18.37;;
8171;SDS011;4127;47.908;10.850;2022-12-18T17:36:35;25.93;;;16.53;;
8171;SDS011;4127;47.908;10.850;2022-12-18T17:40:50;24.93;;;16.53;;
8171;SDS011;4127;47.908;10.850;2022-12-18T17:43:27;21.73;;;14.70;;
8171;SDS011;4127;47.908;10.850;2022-12-18T17:46:01;21.13;;;14.10;;
8171;SDS011;4127;47.908;10.850;2022-12-18T17:48:38;21.83;;;13.83;;
8171;SDS011;4127;47.908;10.850;2022-12-18T17:51:18;19.93;;;13.50;;
8171;SDS011;4127;47.908;10.850;2022-12-18T17:55:01;18.73;;;12.37;;
8171;SDS011;4127;47.908;10.850;2022-12-18T17:58:09;19.17;;;12.47;;
8171;SDS011;4127;47.908;10.850;2022-12-18T18:00:37;18.10;;;12.00;;
8171;SDS011;4127;47.908;10.850;2022-12-18T18:03:04;19.63;;;12.67;;
8171;SDS011;4127;47.908;10.850;2022-12-18T18:05:35;19.27;;;13.47;;
8171;SDS011;4127;47.908;10.850;2022-12-18T18:08:02;21.17;;;14.13;;
8171;SDS011;4127;47.908;10.850;2022-12-18T18:10:48;24.10;;;15.03;;
8171;SDS011;4127;47.908;10.850;2022-12-18T18:14:15;22.20;;;14.90;;
8171;SDS011;4127;47.908;10.850;2022-12-18T18:20:38;30.80;;;17.23;;
8171;SDS011;4127;47.908;10.850;2022-12-18T18:23:25;26.17;;;17.17;;
8171;SDS011;4127;47.908;10.850;2022-12-18T18:26:30;23.50;;;16.87;;
8171;SDS011;4127;47.908;10.850;2022-12-18T18:29:54;25.77;;;16.17;;
8171;SDS011;4127;47.908;10.850;2022-12-18T18:37:01;20.77;;;14.27;;
8171;SDS011;4127;47.908;10.850;2022-12-18T18:43:53;25.43;;;16.07;;
8171;SDS011;4127;47.908;10.850;2022-12-18T18:53:29;21.73;;;15.43;;
8171;SDS011;4127;47.908;10.850;2022-12-18T18:55:56;24.47;;;16.17;;
8171;SDS011;4127;47.908;10.850;2022-12-18T18:59:24;18.67;;;13.40;;
8171;SDS011;4127;47.908;10.850;2022-12-18T19:01:57;19.03;;;12.83;;
8171;SDS011;4127;47.908;10.850;2022-12-18T19:04:30;19.43;;;12.00;;
8171;SDS011;4127;47.908;10.850;2022-12-18T19:07:21;18.73;;;12.90;;
8171;SDS011;4127;47.908;10.850;2022-12-18T19:09:59;17.50;;;13.03;;
8171;SDS011;4127;47.908;10.850;2022-12-18T19:12:36;17.77;;;12.30;;
8171;SDS011;4127;47.908;10.850;2022-12-18T19:15:38;16.33;;;11.00;;
8171;SDS011;4127;47.908;10.850;2022-12-18T19:18:15;16.93;;;12.27;;
8171;SDS011;4127;47.908;10.850;2022-12-18T19:20:52;23.87;;;15.90;;
8171;SDS011;4127;47.908;10.850;2022-12-18T19:23:20;22.70;;;15.13;;
8171;SDS011;4127;47.908;10.850;2022-12-18T19:25:49;18.53;;;12.73;;
8171;SDS011;4127;47.908;10.850;2022-12-18T19:28:38;17.53;;;13.03;;
8171;SDS011;4127;47.908;10.850;2022-12-18T19:31:17;24.47;;;15.97;;
8171;SDS011;4127;47.908;10.850;2022-12-18T19:33:54;23.80;;;16.07;;
8171;SDS011;4127;47.908;10.850;2022-12-18T19:36:22;20.23;;;13.20;;
8171;SDS011;4127;47.908;10.850;2022-12-18T19:39:00;16.77;;;11.50;;
8171;SDS011;4127;47.908;10.850;2022-12-18T19:41:28;28.63;;;17.03;;
8171;SDS011;4127;47.908;10.850;2022-12-18T19:44:03;34.43;;;19.80;;
8171;SDS011;4127;47.908;10.850;2022-12-18T19:46:52;19.30;;;12.10;;
8171;SDS011;4127;47.908;10.850;2022-12-18T19:49:28;16.77;;;10.97;;
8171;SDS011;4127;47.908;10.850;2022-12-18T19:51:57;16.87;;;11.53;;
8171;SDS011;4127;47.908;10.850;2022-12-18T19:54:34;17.70;;;11.37;;
8171;SDS011;4127;47.908;10.850;2022-12-18T19:58:15;13.90;;;9.97;;
8171;SDS011;4127;47.908;10.850;2022-12-18T20:01:02;14.93;;;10.67;;
8171;SDS011;4127;47.908;10.850;2022-12-18T20:03:38;19.90;;;13.67;;
8171;SDS011;4127;47.908;10.850;2022-12-18T20:06:10;39.77;;;25.00;;
8171;SDS011;4127;47.908;10.850;2022-12-18T20:12:40;20.13;;;12.87;;
8171;SDS011;4127;47.908;10.850;2022-12-18T20:18:22;16.37;;;10.60;;
8171;SDS011;4127;47.908;10.850;2022-12-18T20:21:08;16.13;;;10.73;;
8171;SDS011;4127;47.908;10.850;2022-12-18T20:27:57;16.40;;;10.47;;
8171;SDS011;4127;47.908;10.850;2022-12-18T20:30:48;15.57;;;10.13;;
8171;SDS011;4127;47.908;10.850;2022-12-18T20:33:23;13.90;;;9.73;;
8171;SDS011;4127;47.908;10.850;2022-12-18T20:36:05;14.33;;;9.47;;
8171;SDS011;4127;47.908;10.850;2022-12-18T20:39:47;15.27;;;10.40;;
8171;SDS011;4127;47.908;10.850;2022-12-18T20:42:17;16.03;;;10.67;;
8171;SDS011;4127;47.908;10.850;2022-12-18T20:44:44;14.50;;;9.73;;
8171;SDS011;4127;47.908;10.850;2022-12-18T20:47:11;18.70;;;12.20;;
8171;SDS011;4127;47.908;10.850;2022-12-18T20:53:32;14.60;;;9.20;;
8171;SDS011;4127;47.908;10.850;2022-12-18T20:56:04;14.43;;;9.37;;
8171;SDS011;4127;47.908;10.850;2022-12-18T20:59:06;14.57;;;9.93;;
8171;SDS011;4127;47.908;10.850;2022-12-18T21:06:09;13.93;;;9.57;;
8171;SDS011;4127;47.908;10.850;2022-12-18T21:08:45;12.70;;;8.33;;
8171;SDS011;4127;47.908;10.850;2022-12-18T21:14:25;13.00;;;8.30;;
8171;SDS011;4127;47.908;10.850;2022-12-18T21:17:06;14.23;;;8.87;;
8171;SDS011;4127;47.908;10.850;2022-12-18T21:20:46;15.03;;;9.50;;
8171;SDS011;4127;47.908;10.850;2022-12-18T21:23:16;14.17;;;9.97;;
8171;SDS011;4127;47.908;10.850;2022-12-18T21:25:49;14.87;;;9.73;;
8171;SDS011;4127;47.908;10.850;2022-12-18T21:32:33;14.80;;;10.67;;
8171;SDS011;4127;47.908;10.850;2022-12-18T21:35:53;15.13;;;10.30;;
8171;SDS011;4127;47.908;10.850;2022-12-18T21:38:28;15.03;;;9.83;;
8171;SDS011;4127;47.908;10.850;2022-12-18T21:40:55;14.73;;;10.70;;
8171;SDS011;4127;47.908;10.850;2022-12-18T21:43:40;15.87;;;11.07;;
8171;SDS011;4127;47.908;10.850;2022-12-18T21:47:36;15.87;;;10.13;;
8171;SDS011;4127;47.908;10.850;2022-12-18T21:50:07;15.80;;;10.27;;
8171;SDS011;4127;47.908;10.850;2022-12-18T21:52:46;15.17;;;10.87;;
8171;SDS011;4127;47.908;10.850;2022-12-18T21:55:27;14.17;;;9.77;;
8171;SDS011;4127;47.908;10.850;2022-12-18T21:58:00;13.40;;;9.90;;
8171;SDS011;4127;47.908;10.850;2022-12-18T22:01:36;14.70;;;9.47;;
8171;SDS011;4127;47.908;10.850;2022-12-18T22:04:15;13.37;;;9.13;;
8171;SDS011;4127;47.908;10.850;2022-12-18T22:06:47;14.57;;;10.70;;
8171;SDS011;4127;47.908;10.850;2022-12-18T22:09:28;13.37;;;9.43;;
8171;SDS011;4127;47.908;10.850;2022-12-18T22:13:16;16.80;;;10.73;;
8171;SDS011;4127;47.908;10.850;2022-12-18T22:16:05;15.50;;;10.47;;
8171;SDS011;4127;47.908;10.850;2022-12-18T22:18:49;13.57;;;9.40;;
8171;SDS011;4127;47.908;10.850;2022-12-18T22:21:29;13.23;;;8.60;;
8171;SDS011;4127;47.908;10.850;2022-12-18T22:28:00;14.27;;;9.30;;
8171;SDS011;4127;47.908;10.850;2022-12-18T22:31:13;13.80;;;9.43;;
8171;SDS011;4127;47.908;10.850;2022-12-18T22:33:47;15.47;;;11.27;;
8171;SDS011;4127;47.908;10.850;2022-12-18T22:36:52;25.70;;;15.67;;
8171;SDS011;4127;47.908;10.850;2022-12-18T22:39:49;22.63;;;14.90;;
8171;SDS011;4127;47.908;10.850;2022-12-18T22:42:57;22.47;;;14.93;;
8171;SDS011;4127;47.908;10.850;2022-12-18T22:49:05;17.77;;;12.50;;
8171;SDS011;4127;47.908;10.850;2022-12-18T22:51:54;17.33;;;11.97;;
8171;SDS011;4127;47.908;10.850;2022-12-18T22:54:21;18.57;;;12.70;;
8171;SDS011;4127;47.908;10.850;2022-12-18T23:03:45;16.57;;;10.97;;
8171;SDS011;4127;47.908;10.850;2022-12-18T23:07:04;18.87;;;11.57;;
8171;SDS011;4127;47.908;10.850;2022-12-18T23:18:17;13.13;;;8.37;;
8171;SDS011;4127;47.908;10.850;2022-12-18T23:20:52;13.10;;;9.07;;
8171;SDS011;4127;47.908;10.850;2022-12-18T23:30:36;14.80;;;9.23;;
8171;SDS011;4127;47.908;10.850;2022-12-18T23:33:18;14.37;;;9.20;;
8171;SDS011;4127;47.908;10.850;2022-12-18T23:39:33;12.50;;;8.73;;
8171;SDS011;4127;47.908;10.850;2022-12-18T23:46:53;14.33;;;8.90;;
8171;SDS011;4127;47.908;10.850;2022-12-18T23:54:15;11.07;;;7.70;;
